sensor_id;sensor_type;location;lat;lon;timestamp;temperature;humidity
39621;DHT22;25309;48.686;9.170;2023-05-16T00:02:09;12.90;99.90
39621;DHT22;25309;48.686;9.170;2023-05-16T00:04:38;12.90;99.90
39621;DHT22;25309;48.686;9.170;2023-05-16T00:07:05;12.90;99.90
39621;DHT22;25309;48.686;9.170;2023-05-16T00:09:32;12.90;99.90
39621;DHT22;25309;48.686;9.170;2023-05-16T00:11:59;12.90;99.90
39621;DHT22;25309;48.686;9.170;2023-05-16T00:14:26;12.90;99.90
39621;DHT22;25309;48.686;9.170;2023-05-16T00:16:53;12.90;99.90
39621;DHT22;25309;48.686;9.170;2023-05-16T00:19:20;12.80;99.90
39621;DHT22;25309;48.686;9.170;2023-05-16T00:21:48;12.90;99.90
39621;DHT22;25309;48.686;9.170;2023-05-16T00:24:15;12.80;99.90
39621;DHT22;25309;48.686;9.170;2023-05-16T00:26:42;12.80;99.90
39621;DHT22;25309;48.686;9.170;2023-05-16T00:29:09;12.80;99.90
39621;DHT22;25309;48.686;9.170;2023-05-16T00:31:36;12.90;99.90
39621;DHT22;25309;48.686;9.170;2023-05-16T00:34:03;12.90;99.90
39621;DHT22;25309;48.686;9.170;2023-05-16T00:36:30;12.90;99.90
39621;DHT22;25309;48.686;9.170;2023-05-16T00:38:59;12.90;99.90
39621;DHT22;25309;48.686;9.170;2023-05-16T00:41:26;12.80;99.90
39621;DHT22;25309;48.686;9.170;2023-05-16T00:43:53;12.80;99.90
39621;DHT22;25309;48.686;9.170;2023-05-16T00:46:20;12.80;99.90
39621;DHT22;25309;48.686;9.170;2023-05-16T00:48:47;12.80;99.90
39621;DHT22;25309;48.686;9.170;2023-05-16T00:51:15;12.80;99.90
39621;DHT22;25309;48.686;9.170;2023-05-16T00:53:42;12.80;99.90
39621;DHT22;25309;48.686;9.170;2023-05-16T00:56:11;12.80;99.90
39621;DHT22;25309;48.686;9.170;2023-05-16T00:58:38;12.90;99.90
39621;DHT22;25309;48.686;9.170;2023-05-16T01:01:05;12.90;99.90
39621;DHT22;25309;48.686;9.170;2023-05-16T01:03:33;12.90;99.90
39621;DHT22;25309;48.686;9.170;2023-05-16T01:06:01;12.90;99.90
39621;DHT22;25309;48.686;9.170;2023-05-16T01:08:28;13.00;99.90
39621;DHT22;25309;48.686;9.170;2023-05-16T01:11:01;13.00;99.90
39621;DHT22;25309;48.686;9.170;2023-05-16T01:13:39;13.00;99.90
39621;DHT22;25309;48.686;9.170;2023-05-16T01:16:11;13.00;99.90
39621;DHT22;25309;48.686;9.170;2023-05-16T01:18:41;13.10;99.90
39621;DHT22;25309;48.686;9.170;2023-05-16T01:21:15;13.10;99.90
39621;DHT22;25309;48.686;9.170;2023-05-16T01:23:51;13.10;99.90
39621;DHT22;25309;48.686;9.170;2023-05-16T01:26:26;13.10;99.90
39621;DHT22;25309;48.686;9.170;2023-05-16T01:28:53;13.10;99.90
39621;DHT22;25309;48.686;9.170;2023-05-16T01:31:21;13.10;99.90
39621;DHT22;25309;48.686;9.170;2023-05-16T01:33:50;13.10;99.90
39621;DHT22;25309;48.686;9.170;2023-05-16T01:36:24;13.10;99.90
39621;DHT22;25309;48.686;9.170;2023-05-16T01:39:02;13.10;99.90
39621;DHT22;25309;48.686;9.170;2023-05-16T01:41:40;13.00;99.90
39621;DHT22;25309;48.686;9.170;2023-05-16T01:44:16;13.00;99.90
39621;DHT22;25309;48.686;9.170;2023-05-16T01:46:46;12.90;99.90
39621;DHT22;25309;48.686;9.170;2023-05-16T01:49:16;12.90;99.90
39621;DHT22;25309;48.686;9.170;2023-05-16T01:51:50;12.80;99.90
39621;DHT22;25309;48.686;9.170;2023-05-16T01:54:18;12.70;99.90
39621;DHT22;25309;48.686;9.170;2023-05-16T01:56:51;12.70;99.90
39621;DHT22;25309;48.686;9.170;2023-05-16T01:59:19;12.60;99.90
39621;DHT22;25309;48.686;9.170;2023-05-16T02:01:47;12.60;99.90
39621;DHT22;25309;48.686;9.170;2023-05-16T02:04:14;12.50;99.90
39621;DHT22;25309;48.686;9.170;2023-05-16T02:06:42;12.50;99.90
39621;DHT22;25309;48.686;9.170;2023-05-16T02:09:09;12.50;99.90
39621;DHT22;25309;48.686;9.170;2023-05-16T02:11:39;12.40;99.90
39621;DHT22;25309;48.686;9.170;2023-05-16T02:14:07;12.40;99.90
39621;DHT22;25309;48.686;9.170;2023-05-16T02:16:35;12.30;99.90
39621;DHT22;25309;48.686;9.170;2023-05-16T02:19:03;12.30;99.90
39621;DHT22;25309;48.686;9.170;2023-05-16T02:21:30;12.30;99.90
39621;DHT22;25309;48.686;9.170;2023-05-16T02:23:57;12.30;99.90
39621;DHT22;25309;48.686;9.170;2023-05-16T02:26:25;12.30;99.90
39621;DHT22;25309;48.686;9.170;2023-05-16T02:28:52;12.20;99.90
39621;DHT22;25309;48.686;9.170;2023-05-16T02:31:28;12.20;99.90
39621;DHT22;25309;48.686;9.170;2023-05-16T02:33:56;12.20;99.90
39621;DHT22;25309;48.686;9.170;2023-05-16T02:36:24;12.20;99.90
39621;DHT22;25309;48.686;9.170;2023-05-16T02:38:51;12.20;99.90
39621;DHT22;25309;48.686;9.170;2023-05-16T02:41:21;12.20;99.90
39621;DHT22;25309;48.686;9.170;2023-05-16T02:43:48;12.20;99.90
39621;DHT22;25309;48.686;9.170;2023-05-16T02:46:23;12.20;99.90
39621;DHT22;25309;48.686;9.170;2023-05-16T02:48:52;12.20;99.90
39621;DHT22;25309;48.686;9.170;2023-05-16T02:51:20;12.20;99.90
39621;DHT22;25309;48.686;9.170;2023-05-16T02:53:48;12.30;99.90
39621;DHT22;25309;48.686;9.170;2023-05-16T02:56:15;12.30;99.90
39621;DHT22;25309;48.686;9.170;2023-05-16T02:58:43;12.20;99.90
39621;DHT22;25309;48.686;9.170;2023-05-16T03:01:10;12.20;99.90
39621;DHT22;25309;48.686;9.170;2023-05-16T03:03:37;12.20;99.90
39621;DHT22;25309;48.686;9.170;2023-05-16T03:06:06;12.20;99.90
39621;DHT22;25309;48.686;9.170;2023-05-16T03:08:33;12.30;99.90
39621;DHT22;25309;48.686;9.170;2023-05-16T03:11:00;12.30;99.90
39621;DHT22;25309;48.686;9.170;2023-05-16T03:13:29;12.30;99.90
39621;DHT22;25309;48.686;9.170;2023-05-16T03:15:58;12.30;99.90
39621;DHT22;25309;48.686;9.170;2023-05-16T03:18:25;12.30;99.90
39621;DHT22;25309;48.686;9.170;2023-05-16T03:20:52;12.30;99.90
39621;DHT22;25309;48.686;9.170;2023-05-16T03:23:20;12.30;99.90
39621;DHT22;25309;48.686;9.170;2023-05-16T03:25:47;12.30;99.90
39621;DHT22;25309;48.686;9.170;2023-05-16T03:28:16;12.20;99.90
39621;DHT22;25309;48.686;9.170;2023-05-16T03:30:43;12.20;99.90
39621;DHT22;25309;48.686;9.170;2023-05-16T03:33:11;12.10;99.90
39621;DHT22;25309;48.686;9.170;2023-05-16T03:35:38;12.10;99.90
39621;DHT22;25309;48.686;9.170;2023-05-16T03:38:05;12.00;99.90
39621;DHT22;25309;48.686;9.170;2023-05-16T03:40:33;12.00;99.90
39621;DHT22;25309;48.686;9.170;2023-05-16T03:43:00;12.10;99.90
39621;DHT22;25309;48.686;9.170;2023-05-16T03:45:28;12.10;99.90
39621;DHT22;25309;48.686;9.170;2023-05-16T03:47:56;12.20;99.90
39621;DHT22;25309;48.686;9.170;2023-05-16T03:50:23;12.20;99.90
39621;DHT22;25309;48.686;9.170;2023-05-16T03:52:50;12.20;99.90
39621;DHT22;25309;48.686;9.170;2023-05-16T03:55:18;12.30;99.90
39621;DHT22;25309;48.686;9.170;2023-05-16T03:57:47;12.30;99.90
39621;DHT22;25309;48.686;9.170;2023-05-16T04:00:16;12.30;99.90
39621;DHT22;25309;48.686;9.170;2023-05-16T04:02:43;12.20;99.90
39621;DHT22;25309;48.686;9.170;2023-05-16T04:05:11;12.20;99.90
39621;DHT22;25309;48.686;9.170;2023-05-16T04:07:40;12.10;99.90
39621;DHT22;25309;48.686;9.170;2023-05-16T04:10:09;12.00;99.90
39621;DHT22;25309;48.686;9.170;2023-05-16T04:12:36;12.00;99.90
39621;DHT22;25309;48.686;9.170;2023-05-16T04:15:05;12.00;99.90
39621;DHT22;25309;48.686;9.170;2023-05-16T04:17:33;11.90;99.90
39621;DHT22;25309;48.686;9.170;2023-05-16T04:20:00;11.90;99.90
39621;DHT22;25309;48.686;9.170;2023-05-16T04:22:27;11.90;99.90
39621;DHT22;25309;48.686;9.170;2023-05-16T04:24:54;12.00;99.90
39621;DHT22;25309;48.686;9.170;2023-05-16T04:27:21;12.00;99.90
39621;DHT22;25309;48.686;9.170;2023-05-16T04:29:49;12.00;99.90
39621;DHT22;25309;48.686;9.170;2023-05-16T04:32:17;12.10;99.90
39621;DHT22;25309;48.686;9.170;2023-05-16T04:34:45;12.10;99.90
39621;DHT22;25309;48.686;9.170;2023-05-16T04:37:14;12.10;99.90
39621;DHT22;25309;48.686;9.170;2023-05-16T04:39:41;12.10;99.90
39621;DHT22;25309;48.686;9.170;2023-05-16T04:42:08;12.10;99.90
39621;DHT22;25309;48.686;9.170;2023-05-16T04:44:35;12.20;99.90
39621;DHT22;25309;48.686;9.170;2023-05-16T04:47:02;12.20;99.90
39621;DHT22;25309;48.686;9.170;2023-05-16T04:49:30;12.30;99.90
39621;DHT22;25309;48.686;9.170;2023-05-16T04:51:57;12.40;99.90
39621;DHT22;25309;48.686;9.170;2023-05-16T04:54:24;12.50;99.90
39621;DHT22;25309;48.686;9.170;2023-05-16T04:56:52;12.50;99.90
39621;DHT22;25309;48.686;9.170;2023-05-16T04:59:18;12.50;99.90
39621;DHT22;25309;48.686;9.170;2023-05-16T05:01:46;12.60;99.90
39621;DHT22;25309;48.686;9.170;2023-05-16T05:04:13;12.60;99.90
39621;DHT22;25309;48.686;9.170;2023-05-16T05:06:41;12.60;99.90
39621;DHT22;25309;48.686;9.170;2023-05-16T05:09:08;12.70;99.90
39621;DHT22;25309;48.686;9.170;2023-05-16T05:11:35;12.70;99.90
39621;DHT22;25309;48.686;9.170;2023-05-16T05:14:03;12.60;99.90
39621;DHT22;25309;48.686;9.170;2023-05-16T05:16:30;12.70;99.90
39621;DHT22;25309;48.686;9.170;2023-05-16T05:18:56;12.70;99.90
39621;DHT22;25309;48.686;9.170;2023-05-16T05:21:24;12.70;99.90
39621;DHT22;25309;48.686;9.170;2023-05-16T05:23:52;12.60;99.90
39621;DHT22;25309;48.686;9.170;2023-05-16T05:26:19;12.60;99.90
39621;DHT22;25309;48.686;9.170;2023-05-16T05:28:48;12.70;99.90
39621;DHT22;25309;48.686;9.170;2023-05-16T05:31:30;12.60;99.90
39621;DHT22;25309;48.686;9.170;2023-05-16T05:33:59;12.70;99.90
39621;DHT22;25309;48.686;9.170;2023-05-16T05:36:26;12.60;99.90
39621;DHT22;25309;48.686;9.170;2023-05-16T05:38:55;12.60;99.90
39621;DHT22;25309;48.686;9.170;2023-05-16T05:41:22;12.70;99.90
39621;DHT22;25309;48.686;9.170;2023-05-16T05:43:48;12.70;99.90
39621;DHT22;25309;48.686;9.170;2023-05-16T05:46:15;12.80;99.90
39621;DHT22;25309;48.686;9.170;2023-05-16T05:48:43;12.80;99.90
39621;DHT22;25309;48.686;9.170;2023-05-16T05:51:10;12.70;99.90
39621;DHT22;25309;48.686;9.170;2023-05-16T05:53:37;12.80;99.90
39621;DHT22;25309;48.686;9.170;2023-05-16T05:56:05;12.80;99.90
39621;DHT22;25309;48.686;9.170;2023-05-16T05:58:32;12.80;99.90
39621;DHT22;25309;48.686;9.170;2023-05-16T06:00:59;12.80;99.90
39621;DHT22;25309;48.686;9.170;2023-05-16T06:03:26;12.80;99.90
39621;DHT22;25309;48.686;9.170;2023-05-16T06:05:53;12.80;99.90
39621;DHT22;25309;48.686;9.170;2023-05-16T06:08:20;12.80;99.90
39621;DHT22;25309;48.686;9.170;2023-05-16T06:10:47;12.80;99.90
39621;DHT22;25309;48.686;9.170;2023-05-16T06:13:15;12.70;99.90
39621;DHT22;25309;48.686;9.170;2023-05-16T06:15:42;12.80;99.90
39621;DHT22;25309;48.686;9.170;2023-05-16T06:18:09;12.80;99.90
39621;DHT22;25309;48.686;9.170;2023-05-16T06:20:36;12.80;99.90
39621;DHT22;25309;48.686;9.170;2023-05-16T06:23:03;12.80;99.90
39621;DHT22;25309;48.686;9.170;2023-05-16T06:25:30;12.80;99.90
39621;DHT22;25309;48.686;9.170;2023-05-16T06:27:57;12.90;99.90
39621;DHT22;25309;48.686;9.170;2023-05-16T06:30:25;12.90;99.90
39621;DHT22;25309;48.686;9.170;2023-05-16T06:32:52;13.00;99.90
39621;DHT22;25309;48.686;9.170;2023-05-16T06:35:19;13.00;99.90
39621;DHT22;25309;48.686;9.170;2023-05-16T06:37:46;12.90;99.90
39621;DHT22;25309;48.686;9.170;2023-05-16T06:40:13;12.90;99.90
39621;DHT22;25309;48.686;9.170;2023-05-16T06:42:40;13.00;99.90
39621;DHT22;25309;48.686;9.170;2023-05-16T06:45:08;12.90;99.90
39621;DHT22;25309;48.686;9.170;2023-05-16T06:47:37;12.90;99.90
39621;DHT22;25309;48.686;9.170;2023-05-16T06:50:06;12.90;99.90
39621;DHT22;25309;48.686;9.170;2023-05-16T06:52:33;12.90;99.90
39621;DHT22;25309;48.686;9.170;2023-05-16T06:55:00;12.90;99.90
39621;DHT22;25309;48.686;9.170;2023-05-16T06:57:27;12.90;99.90
39621;DHT22;25309;48.686;9.170;2023-05-16T06:59:54;13.00;99.90
39621;DHT22;25309;48.686;9.170;2023-05-16T07:02:21;12.90;99.90
39621;DHT22;25309;48.686;9.170;2023-05-16T07:04:50;13.00;99.90
39621;DHT22;25309;48.686;9.170;2023-05-16T07:07:17;13.00;99.90
39621;DHT22;25309;48.686;9.170;2023-05-16T07:09:44;13.10;99.90
39621;DHT22;25309;48.686;9.170;2023-05-16T07:12:11;13.10;99.90
39621;DHT22;25309;48.686;9.170;2023-05-16T07:14:37;13.20;99.90
39621;DHT22;25309;48.686;9.170;2023-05-16T07:17:05;13.20;99.90
39621;DHT22;25309;48.686;9.170;2023-05-16T07:19:32;13.30;99.90
39621;DHT22;25309;48.686;9.170;2023-05-16T07:22:00;13.30;99.90
39621;DHT22;25309;48.686;9.170;2023-05-16T07:24:27;13.30;99.90
39621;DHT22;25309;48.686;9.170;2023-05-16T07:26:54;13.30;99.90
39621;DHT22;25309;48.686;9.170;2023-05-16T07:29:21;13.40;99.90
39621;DHT22;25309;48.686;9.170;2023-05-16T07:31:48;13.30;99.90
39621;DHT22;25309;48.686;9.170;2023-05-16T07:34:15;13.40;99.90
39621;DHT22;25309;48.686;9.170;2023-05-16T07:36:42;13.40;99.90
39621;DHT22;25309;48.686;9.170;2023-05-16T07:39:11;13.50;99.90
39621;DHT22;25309;48.686;9.170;2023-05-16T07:41:38;13.50;99.90
39621;DHT22;25309;48.686;9.170;2023-05-16T07:44:04;13.50;99.90
39621;DHT22;25309;48.686;9.170;2023-05-16T07:46:31;13.30;99.90
39621;DHT22;25309;48.686;9.170;2023-05-16T07:48:58;13.30;99.90
39621;DHT22;25309;48.686;9.170;2023-05-16T07:51:25;13.30;99.90
39621;DHT22;25309;48.686;9.170;2023-05-16T07:53:52;13.30;99.90
39621;DHT22;25309;48.686;9.170;2023-05-16T07:56:21;13.30;99.90
39621;DHT22;25309;48.686;9.170;2023-05-16T07:58:49;13.40;99.90
39621;DHT22;25309;48.686;9.170;2023-05-16T08:01:16;13.30;99.90
39621;DHT22;25309;48.686;9.170;2023-05-16T08:03:43;13.40;99.90
39621;DHT22;25309;48.686;9.170;2023-05-16T08:06:10;13.50;99.90
39621;DHT22;25309;48.686;9.170;2023-05-16T08:08:37;13.50;99.90
39621;DHT22;25309;48.686;9.170;2023-05-16T08:11:04;13.60;99.90
39621;DHT22;25309;48.686;9.170;2023-05-16T08:13:32;13.60;99.90
39621;DHT22;25309;48.686;9.170;2023-05-16T08:15:59;13.70;99.90
39621;DHT22;25309;48.686;9.170;2023-05-16T08:18:26;13.80;99.90
39621;DHT22;25309;48.686;9.170;2023-05-16T08:20:53;13.80;99.90
39621;DHT22;25309;48.686;9.170;2023-05-16T08:23:20;13.70;99.90
39621;DHT22;25309;48.686;9.170;2023-05-16T08:25:47;13.80;99.90
39621;DHT22;25309;48.686;9.170;2023-05-16T08:28:14;13.80;99.90
39621;DHT22;25309;48.686;9.170;2023-05-16T08:30:43;13.90;99.90
39621;DHT22;25309;48.686;9.170;2023-05-16T08:33:13;13.90;99.90
39621;DHT22;25309;48.686;9.170;2023-05-16T08:35:42;13.90;99.90
39621;DHT22;25309;48.686;9.170;2023-05-16T08:38:09;13.90;99.90
39621;DHT22;25309;48.686;9.170;2023-05-16T08:40:37;14.00;99.90
39621;DHT22;25309;48.686;9.170;2023-05-16T08:43:04;14.00;99.90
39621;DHT22;25309;48.686;9.170;2023-05-16T08:45:31;14.00;99.90
39621;DHT22;25309;48.686;9.170;2023-05-16T08:48:00;14.00;99.90
39621;DHT22;25309;48.686;9.170;2023-05-16T08:50:30;14.10;99.90
39621;DHT22;25309;48.686;9.170;2023-05-16T08:52:57;14.10;99.90
39621;DHT22;25309;48.686;9.170;2023-05-16T08:55:31;14.00;99.90
39621;DHT22;25309;48.686;9.170;2023-05-16T08:57:59;14.00;99.90
39621;DHT22;25309;48.686;9.170;2023-05-16T09:00:26;13.80;99.90
39621;DHT22;25309;48.686;9.170;2023-05-16T09:02:54;13.80;99.90
39621;DHT22;25309;48.686;9.170;2023-05-16T09:05:23;13.70;99.90
39621;DHT22;25309;48.686;9.170;2023-05-16T09:07:50;13.60;99.90
39621;DHT22;25309;48.686;9.170;2023-05-16T09:10:17;13.60;99.90
39621;DHT22;25309;48.686;9.170;2023-05-16T09:12:44;13.60;99.90
39621;DHT22;25309;48.686;9.170;2023-05-16T09:15:11;13.60;99.90
39621;DHT22;25309;48.686;9.170;2023-05-16T09:17:41;13.60;99.90
39621;DHT22;25309;48.686;9.170;2023-05-16T09:20:10;13.60;99.90
39621;DHT22;25309;48.686;9.170;2023-05-16T09:22:40;13.60;99.90
39621;DHT22;25309;48.686;9.170;2023-05-16T09:25:16;13.70;99.90
39621;DHT22;25309;48.686;9.170;2023-05-16T09:27:56;13.70;99.90
39621;DHT22;25309;48.686;9.170;2023-05-16T09:30:27;13.70;99.90
39621;DHT22;25309;48.686;9.170;2023-05-16T09:32:55;13.70;99.90
39621;DHT22;25309;48.686;9.170;2023-05-16T09:35:22;13.70;99.90
39621;DHT22;25309;48.686;9.170;2023-05-16T09:38:14;13.70;99.90
39621;DHT22;25309;48.686;9.170;2023-05-16T09:40:42;13.80;99.90
39621;DHT22;25309;48.686;9.170;2023-05-16T09:43:14;13.80;99.90
39621;DHT22;25309;48.686;9.170;2023-05-16T09:45:45;13.90;99.90
39621;DHT22;25309;48.686;9.170;2023-05-16T09:48:14;13.90;99.90
39621;DHT22;25309;48.686;9.170;2023-05-16T09:50:46;13.80;99.90
39621;DHT22;25309;48.686;9.170;2023-05-16T09:53:16;13.70;99.90
39621;DHT22;25309;48.686;9.170;2023-05-16T09:55:43;13.80;99.90
39621;DHT22;25309;48.686;9.170;2023-05-16T09:58:10;13.80;99.90
39621;DHT22;25309;48.686;9.170;2023-05-16T10:00:38;13.90;99.90
39621;DHT22;25309;48.686;9.170;2023-05-16T10:03:07;14.00;99.90
39621;DHT22;25309;48.686;9.170;2023-05-16T10:05:35;14.00;99.90
39621;DHT22;25309;48.686;9.170;2023-05-16T10:08:02;14.00;99.90
39621;DHT22;25309;48.686;9.170;2023-05-16T10:10:35;14.00;99.90
39621;DHT22;25309;48.686;9.170;2023-05-16T10:13:05;13.90;99.90
39621;DHT22;25309;48.686;9.170;2023-05-16T10:15:35;13.80;99.90
39621;DHT22;25309;48.686;9.170;2023-05-16T10:18:03;13.80;99.90
39621;DHT22;25309;48.686;9.170;2023-05-16T10:20:34;13.80;99.90
39621;DHT22;25309;48.686;9.170;2023-05-16T10:23:01;13.90;99.90
39621;DHT22;25309;48.686;9.170;2023-05-16T10:25:33;14.00;99.90
39621;DHT22;25309;48.686;9.170;2023-05-16T10:28:02;14.00;99.90
39621;DHT22;25309;48.686;9.170;2023-05-16T10:30:31;14.10;99.90
39621;DHT22;25309;48.686;9.170;2023-05-16T10:33:00;14.00;99.90
39621;DHT22;25309;48.686;9.170;2023-05-16T10:35:27;14.00;99.90
39621;DHT22;25309;48.686;9.170;2023-05-16T10:37:55;13.90;99.90
39621;DHT22;25309;48.686;9.170;2023-05-16T10:40:23;13.90;99.90
39621;DHT22;25309;48.686;9.170;2023-05-16T10:42:56;13.90;99.90
39621;DHT22;25309;48.686;9.170;2023-05-16T10:45:23;13.90;99.90
39621;DHT22;25309;48.686;9.170;2023-05-16T10:47:52;14.00;99.90
39621;DHT22;25309;48.686;9.170;2023-05-16T10:50:33;14.10;99.90
39621;DHT22;25309;48.686;9.170;2023-05-16T10:53:18;14.20;99.90
39621;DHT22;25309;48.686;9.170;2023-05-16T10:55:49;14.30;99.90
39621;DHT22;25309;48.686;9.170;2023-05-16T10:58:22;14.50;99.90
39621;DHT22;25309;48.686;9.170;2023-05-16T11:01:19;14.60;99.90
39621;DHT22;25309;48.686;9.170;2023-05-16T11:04:06;14.80;99.90
39621;DHT22;25309;48.686;9.170;2023-05-16T11:06:35;14.80;99.90
39621;DHT22;25309;48.686;9.170;2023-05-16T11:09:18;14.70;99.90
39621;DHT22;25309;48.686;9.170;2023-05-16T11:11:46;14.70;99.90
39621;DHT22;25309;48.686;9.170;2023-05-16T11:14:19;14.60;99.90
39621;DHT22;25309;48.686;9.170;2023-05-16T11:16:51;14.50;99.90
39621;DHT22;25309;48.686;9.170;2023-05-16T11:19:30;14.40;99.90
39621;DHT22;25309;48.686;9.170;2023-05-16T11:22:21;14.30;99.90
39621;DHT22;25309;48.686;9.170;2023-05-16T11:24:51;14.20;99.90
39621;DHT22;25309;48.686;9.170;2023-05-16T11:27:24;14.00;99.90
39621;DHT22;25309;48.686;9.170;2023-05-16T11:29:54;13.80;99.90
39621;DHT22;25309;48.686;9.170;2023-05-16T11:32:22;13.70;99.90
39621;DHT22;25309;48.686;9.170;2023-05-16T11:34:50;13.60;99.90
39621;DHT22;25309;48.686;9.170;2023-05-16T11:37:18;13.50;99.90
39621;DHT22;25309;48.686;9.170;2023-05-16T11:39:45;13.50;99.90
39621;DHT22;25309;48.686;9.170;2023-05-16T11:42:13;13.50;99.90
39621;DHT22;25309;48.686;9.170;2023-05-16T11:44:40;13.40;99.90
39621;DHT22;25309;48.686;9.170;2023-05-16T11:47:08;13.40;99.90
39621;DHT22;25309;48.686;9.170;2023-05-16T11:49:35;13.40;99.90
39621;DHT22;25309;48.686;9.170;2023-05-16T11:52:03;13.40;99.90
39621;DHT22;25309;48.686;9.170;2023-05-16T11:54:30;13.30;99.90
39621;DHT22;25309;48.686;9.170;2023-05-16T11:56:58;13.30;99.90
39621;DHT22;25309;48.686;9.170;2023-05-16T11:59:25;13.10;99.90
39621;DHT22;25309;48.686;9.170;2023-05-16T12:01:52;13.20;99.90
39621;DHT22;25309;48.686;9.170;2023-05-16T12:04:21;13.20;99.90
39621;DHT22;25309;48.686;9.170;2023-05-16T12:07:00;13.10;99.90
39621;DHT22;25309;48.686;9.170;2023-05-16T12:09:27;13.10;99.90
39621;DHT22;25309;48.686;9.170;2023-05-16T12:11:55;13.10;99.90
39621;DHT22;25309;48.686;9.170;2023-05-16T12:14:22;13.10;99.90
39621;DHT22;25309;48.686;9.170;2023-05-16T12:16:50;13.20;99.90
39621;DHT22;25309;48.686;9.170;2023-05-16T12:19:20;13.10;99.90
39621;DHT22;25309;48.686;9.170;2023-05-16T12:21:51;13.10;99.90
39621;DHT22;25309;48.686;9.170;2023-05-16T12:24:18;13.10;99.90
39621;DHT22;25309;48.686;9.170;2023-05-16T12:26:45;13.10;99.90
39621;DHT22;25309;48.686;9.170;2023-05-16T12:29:12;13.20;99.90
39621;DHT22;25309;48.686;9.170;2023-05-16T12:31:39;13.20;99.90
39621;DHT22;25309;48.686;9.170;2023-05-16T12:34:17;13.20;99.90
39621;DHT22;25309;48.686;9.170;2023-05-16T12:36:49;13.30;99.90
39621;DHT22;25309;48.686;9.170;2023-05-16T12:39:17;13.30;99.90
39621;DHT22;25309;48.686;9.170;2023-05-16T12:41:44;13.20;99.90
39621;DHT22;25309;48.686;9.170;2023-05-16T12:44:12;13.20;99.90
39621;DHT22;25309;48.686;9.170;2023-05-16T12:46:41;13.20;99.90
39621;DHT22;25309;48.686;9.170;2023-05-16T12:49:08;13.20;99.90
39621;DHT22;25309;48.686;9.170;2023-05-16T12:51:35;13.20;99.90
39621;DHT22;25309;48.686;9.170;2023-05-16T12:54:10;13.10;99.90
39621;DHT22;25309;48.686;9.170;2023-05-16T12:56:38;13.20;99.90
39621;DHT22;25309;48.686;9.170;2023-05-16T12:59:06;13.20;99.90
39621;DHT22;25309;48.686;9.170;2023-05-16T13:01:33;13.10;99.90
39621;DHT22;25309;48.686;9.170;2023-05-16T13:04:01;13.20;99.90
39621;DHT22;25309;48.686;9.170;2023-05-16T13:06:28;13.20;99.90
39621;DHT22;25309;48.686;9.170;2023-05-16T13:09:12;13.20;99.90
39621;DHT22;25309;48.686;9.170;2023-05-16T13:11:39;13.30;99.90
39621;DHT22;25309;48.686;9.170;2023-05-16T13:14:06;13.40;99.90
39621;DHT22;25309;48.686;9.170;2023-05-16T13:16:33;13.50;99.90
39621;DHT22;25309;48.686;9.170;2023-05-16T13:19:00;13.40;99.90
39621;DHT22;25309;48.686;9.170;2023-05-16T13:21:28;13.40;99.90
39621;DHT22;25309;48.686;9.170;2023-05-16T13:23:57;13.30;99.90
39621;DHT22;25309;48.686;9.170;2023-05-16T13:26:26;13.30;99.90
39621;DHT22;25309;48.686;9.170;2023-05-16T13:28:53;13.20;99.90
39621;DHT22;25309;48.686;9.170;2023-05-16T13:31:21;13.20;99.90
39621;DHT22;25309;48.686;9.170;2023-05-16T13:33:48;13.20;99.90
39621;DHT22;25309;48.686;9.170;2023-05-16T13:36:15;13.20;99.90
39621;DHT22;25309;48.686;9.170;2023-05-16T13:38:42;13.10;99.90
39621;DHT22;25309;48.686;9.170;2023-05-16T13:41:09;13.00;99.90
39621;DHT22;25309;48.686;9.170;2023-05-16T13:43:37;12.90;99.90
39621;DHT22;25309;48.686;9.170;2023-05-16T13:46:04;12.80;99.90
39621;DHT22;25309;48.686;9.170;2023-05-16T13:48:31;12.70;99.90
39621;DHT22;25309;48.686;9.170;2023-05-16T13:50:58;12.60;99.90
39621;DHT22;25309;48.686;9.170;2023-05-16T13:53:25;12.60;99.90
39621;DHT22;25309;48.686;9.170;2023-05-16T13:55:52;12.50;99.90
39621;DHT22;25309;48.686;9.170;2023-05-16T13:58:20;12.50;99.90
39621;DHT22;25309;48.686;9.170;2023-05-16T14:00:48;12.50;99.90
39621;DHT22;25309;48.686;9.170;2023-05-16T14:03:16;12.50;99.90
39621;DHT22;25309;48.686;9.170;2023-05-16T14:05:44;12.60;99.90
39621;DHT22;25309;48.686;9.170;2023-05-16T14:08:11;12.60;99.90
39621;DHT22;25309;48.686;9.170;2023-05-16T14:10:38;12.50;99.90
39621;DHT22;25309;48.686;9.170;2023-05-16T14:13:05;12.60;99.90
39621;DHT22;25309;48.686;9.170;2023-05-16T14:15:33;12.60;99.90
39621;DHT22;25309;48.686;9.170;2023-05-16T14:18:01;12.50;99.90
39621;DHT22;25309;48.686;9.170;2023-05-16T14:20:30;12.60;99.90
39621;DHT22;25309;48.686;9.170;2023-05-16T14:22:57;12.60;99.90
39621;DHT22;25309;48.686;9.170;2023-05-16T14:25:24;12.70;99.90
39621;DHT22;25309;48.686;9.170;2023-05-16T14:27:52;12.70;99.90
39621;DHT22;25309;48.686;9.170;2023-05-16T14:30:19;12.80;99.90
39621;DHT22;25309;48.686;9.170;2023-05-16T14:32:46;12.70;99.90
39621;DHT22;25309;48.686;9.170;2023-05-16T14:35:14;12.70;99.90
39621;DHT22;25309;48.686;9.170;2023-05-16T14:37:41;12.70;99.90
39621;DHT22;25309;48.686;9.170;2023-05-16T14:40:08;12.70;99.90
39621;DHT22;25309;48.686;9.170;2023-05-16T14:42:37;12.70;99.90
39621;DHT22;25309;48.686;9.170;2023-05-16T14:45:04;12.70;99.90
39621;DHT22;25309;48.686;9.170;2023-05-16T14:47:32;12.80;99.90
39621;DHT22;25309;48.686;9.170;2023-05-16T14:49:59;12.80;99.90
39621;DHT22;25309;48.686;9.170;2023-05-16T14:52:28;12.70;99.90
39621;DHT22;25309;48.686;9.170;2023-05-16T14:54:55;12.80;99.90
39621;DHT22;25309;48.686;9.170;2023-05-16T14:57:22;12.80;99.90
39621;DHT22;25309;48.686;9.170;2023-05-16T14:59:49;12.90;99.90
39621;DHT22;25309;48.686;9.170;2023-05-16T15:02:16;12.80;99.90
39621;DHT22;25309;48.686;9.170;2023-05-16T15:04:43;12.80;99.90
39621;DHT22;25309;48.686;9.170;2023-05-16T15:07:10;12.80;99.90
39621;DHT22;25309;48.686;9.170;2023-05-16T15:09:39;12.90;99.90
39621;DHT22;25309;48.686;9.170;2023-05-16T15:12:06;12.90;99.90
39621;DHT22;25309;48.686;9.170;2023-05-16T15:14:35;13.00;99.90
39621;DHT22;25309;48.686;9.170;2023-05-16T15:17:02;13.00;99.90
39621;DHT22;25309;48.686;9.170;2023-05-16T15:19:31;13.00;99.90
39621;DHT22;25309;48.686;9.170;2023-05-16T15:21:58;13.00;99.90
39621;DHT22;25309;48.686;9.170;2023-05-16T15:24:25;13.00;99.90
39621;DHT22;25309;48.686;9.170;2023-05-16T15:26:54;13.10;99.90
39621;DHT22;25309;48.686;9.170;2023-05-16T15:29:21;13.00;99.90
39621;DHT22;25309;48.686;9.170;2023-05-16T15:31:48;13.00;99.90
39621;DHT22;25309;48.686;9.170;2023-05-16T15:34:15;13.00;99.90
39621;DHT22;25309;48.686;9.170;2023-05-16T15:36:42;13.10;99.90
39621;DHT22;25309;48.686;9.170;2023-05-16T15:39:09;13.20;99.90